createdAt,value
2022-11-04T00:02:25.433Z,25.60
2022-11-04T00:04:51.945Z,22.20
2022-11-04T00:07:18.400Z,26.70
2022-11-04T00:09:44.891Z,23.60
2022-11-04T00:12:11.363Z,30.50
2022-11-04T00:14:38.057Z,25.80
2022-11-04T00:17:05.133Z,26.00
2022-11-04T00:19:31.985Z,24.10
2022-11-04T00:21:58.468Z,26.30
2022-11-04T00:24:25.053Z,25.80
2022-11-04T00:26:52.003Z,30.10
2022-11-04T00:29:18.476Z,26.80
2022-11-04T00:31:44.943Z,29.70
2022-11-04T00:34:11.644Z,25.70
2022-11-04T00:36:38.127Z,24.70
2022-11-04T00:39:04.617Z,23.10
2022-11-04T00:41:31.150Z,22.50
2022-11-04T00:44:05.359Z,22.50
2022-11-04T00:46:33.562Z,24.40
2022-11-04T00:49:00.852Z,26.00
2022-11-04T00:51:27.517Z,25.20
2022-11-04T00:53:54.092Z,26.50
2022-11-04T00:56:20.763Z,22.00
2022-11-04T00:58:47.314Z,27.00
2022-11-04T01:01:16.305Z,25.80
2022-11-04T01:03:43.272Z,27.50
2022-11-04T01:06:09.911Z,29.40
2022-11-04T01:08:36.417Z,24.90
2022-11-04T01:11:08.246Z,28.20
2022-11-04T01:13:35.457Z,26.30
2022-11-04T01:16:03.805Z,28.10
2022-11-04T01:18:30.324Z,26.60
2022-11-04T01:21:01.341Z,26.10
2022-11-04T01:23:29.225Z,25.90
2022-11-04T01:25:55.980Z,25.70
2022-11-04T01:28:22.820Z,26.00
2022-11-04T01:30:49.285Z,28.20
2022-11-04T01:33:15.795Z,33.20
2022-11-04T01:35:42.310Z,31.80
2022-11-04T01:38:09.199Z,29.40
2022-11-04T01:40:37.520Z,33.00
2022-11-04T01:43:04.261Z,30.60
2022-11-04T01:45:30.805Z,30.40
2022-11-04T01:48:09.628Z,32.70
2022-11-04T01:50:37.166Z,33.10
2022-11-04T01:53:12.550Z,32.10
2022-11-04T01:55:50.754Z,34.50
2022-11-04T01:58:21.165Z,30.10
2022-11-04T02:00:48.468Z,31.80
2022-11-04T02:03:26.722Z,30.30
2022-11-04T02:05:54.574Z,28.90
2022-11-04T02:08:22.037Z,29.40
2022-11-04T02:10:54.644Z,24.40
2022-11-04T02:13:21.248Z,26.40
2022-11-04T02:16:03.277Z,37.20
2022-11-04T02:18:44.970Z,40.60
2022-11-04T02:24:24.039Z,30.00
2022-11-04T02:27:19.871Z,33.00
2022-11-04T02:29:56.908Z,33.10
2022-11-04T02:32:45.988Z,35.90
2022-11-04T02:35:18.885Z,28.50
2022-11-04T02:37:57.411Z,32.40
2022-11-04T02:40:35.980Z,35.20
2022-11-04T02:43:28.758Z,35.00
2022-11-04T02:46:21.140Z,30.20
2022-11-04T02:49:02.863Z,28.40
2022-11-04T02:54:05.870Z,29.80
2022-11-04T02:56:36.363Z,32.10
2022-11-04T02:59:10.988Z,30.70
2022-11-04T03:01:41.955Z,32.20
2022-11-04T03:04:15.843Z,32.50
2022-11-04T03:06:49.427Z,32.90
2022-11-04T03:09:18.875Z,33.80
2022-11-04T03:11:51.378Z,29.00
2022-11-04T03:14:30.656Z,26.90
2022-11-04T03:17:01.633Z,34.20
2022-11-04T03:19:49.616Z,27.60
2022-11-04T03:22:22.320Z,31.90
2022-11-04T03:24:49.998Z,37.10
2022-11-04T03:27:31.907Z,30.80
2022-11-04T03:30:07.037Z,31.00
2022-11-04T03:32:42.356Z,30.40
2022-11-04T03:35:10.129Z,31.90
2022-11-04T03:37:36.925Z,34.00
2022-11-04T03:40:04.554Z,30.50
2022-11-04T03:42:34.632Z,32.40
2022-11-04T03:45:01.445Z,27.90
2022-11-04T03:47:30.084Z,32.20
2022-11-04T03:50:09.688Z,39.10
2022-11-04T03:52:36.630Z,34.80
2022-11-04T03:55:04.504Z,32.00
2022-11-04T03:58:02.374Z,29.90
2022-11-04T04:00:36.945Z,29.70
2022-11-04T04:03:09.817Z,29.90
2022-11-04T04:05:52.615Z,33.70
2022-11-04T04:08:42.212Z,32.50
2022-11-04T04:11:34.255Z,29.20
2022-11-04T04:14:15.864Z,32.20
2022-11-04T04:16:47.476Z,31.60
2022-11-04T04:21:48.714Z,31.20
2022-11-04T04:24:18.652Z,28.60
2022-11-04T04:26:46.980Z,33.70
2022-11-04T04:29:14.406Z,34.50
2022-11-04T04:31:41.467Z,36.40
2022-11-04T04:34:08.855Z,39.40
2022-11-04T04:36:52.557Z,34.40
2022-11-04T04:39:22.730Z,38.50
2022-11-04T04:41:49.250Z,38.10
2022-11-04T04:44:23.931Z,40.10
2022-11-04T04:46:54.191Z,34.90
2022-11-04T04:49:20.656Z,38.00
2022-11-04T04:51:48.177Z,29.80
2022-11-04T04:54:15.143Z,31.10
2022-11-04T04:56:41.615Z,30.40
2022-11-04T04:59:08.079Z,37.70
2022-11-04T05:01:34.698Z,27.60
2022-11-04T05:04:01.276Z,32.30
2022-11-04T05:06:27.732Z,35.60
2022-11-04T05:08:54.231Z,30.70
2022-11-04T05:11:24.381Z,32.00
2022-11-04T05:13:53.908Z,33.00
2022-11-04T05:16:20.403Z,29.40
2022-11-04T05:18:46.894Z,33.60
2022-11-04T05:21:15.601Z,30.90
2022-11-04T05:23:42.126Z,32.80
2022-11-04T05:26:08.745Z,34.00
2022-11-04T05:28:35.318Z,27.60
2022-11-04T05:31:07.103Z,31.60
2022-11-04T05:33:33.981Z,32.90
2022-11-04T05:36:11.946Z,33.10
2022-11-04T05:38:38.903Z,38.10
2022-11-04T05:41:06.614Z,30.50
2022-11-04T05:43:33.623Z,30.90
2022-11-04T05:46:01.356Z,35.10
2022-11-04T05:48:28.256Z,34.50
2022-11-04T05:50:55.738Z,35.90
2022-11-04T05:53:22.450Z,32.60
2022-11-04T05:55:49.088Z,32.50
2022-11-04T05:58:15.571Z,33.30
2022-11-04T06:00:42.142Z,31.40
2022-11-04T06:03:12.067Z,33.70
2022-11-04T06:05:41.842Z,31.90
2022-11-04T06:08:08.547Z,35.00
2022-11-04T06:10:35.312Z,32.50
2022-11-04T06:13:01.831Z,35.30
2022-11-04T06:15:28.508Z,34.20
2022-11-04T06:17:55.025Z,39.20
2022-11-04T06:20:21.467Z,31.40
2022-11-04T06:22:47.984Z,39.60
2022-11-04T06:25:14.819Z,30.70
2022-11-04T06:27:41.332Z,36.00
2022-11-04T06:30:08.496Z,30.10
2022-11-04T06:32:34.983Z,33.20
2022-11-04T06:35:01.514Z,31.00
2022-11-04T06:37:27.972Z,34.80
2022-11-04T06:39:54.447Z,32.10
2022-11-04T06:42:23.556Z,36.10
2022-11-04T06:44:50.028Z,31.90
2022-11-04T06:47:19.584Z,32.20
2022-11-04T06:49:50.084Z,31.70
2022-11-04T06:52:16.752Z,34.50
2022-11-04T06:54:43.319Z,34.30
2022-11-04T06:57:11.454Z,29.00
2022-11-04T06:59:37.918Z,35.20
2022-11-04T07:02:04.688Z,30.60
2022-11-04T07:04:31.471Z,36.50
2022-11-04T07:06:57.962Z,39.10
2022-11-04T07:09:24.484Z,39.60
2022-11-04T07:11:50.995Z,38.80
2022-11-04T07:14:17.457Z,34.00
2022-11-04T07:16:43.907Z,30.30
2022-11-04T07:19:10.346Z,32.80
2022-11-04T07:21:36.870Z,24.70
2022-11-04T07:24:03.474Z,32.60
2022-11-04T07:26:30.009Z,36.30
2022-11-04T07:28:56.493Z,33.00
2022-11-04T07:31:23.632Z,30.30
2022-11-04T07:33:50.397Z,35.60
2022-11-04T07:36:18.166Z,31.20
2022-11-04T07:38:45.088Z,35.60
2022-11-04T07:41:12.652Z,33.70
2022-11-04T07:43:39.357Z,35.00
2022-11-04T07:46:11.617Z,34.40
2022-11-04T07:48:38.766Z,29.90
2022-11-04T07:51:07.307Z,32.30
2022-11-04T07:53:34.610Z,32.10
2022-11-04T07:56:07.802Z,31.40
2022-11-04T07:58:34.804Z,29.80
2022-11-04T08:01:03.548Z,35.50
2022-11-04T08:03:30.061Z,31.20
2022-11-04T08:06:01.010Z,34.40
2022-11-04T08:08:28.301Z,31.50
2022-11-04T08:10:57.232Z,30.80
2022-11-04T08:13:27.154Z,34.10
2022-11-04T08:15:53.722Z,32.10
2022-11-04T08:18:20.236Z,35.70
2022-11-04T08:20:51.264Z,29.80
2022-11-04T08:23:18.822Z,32.20
2022-11-04T08:25:45.785Z,28.50
2022-11-04T08:28:12.689Z,32.90
2022-11-04T08:30:39.485Z,34.60
2022-11-04T08:33:06.099Z,36.10
2022-11-04T08:35:40.740Z,36.30
2022-11-04T08:38:07.611Z,23.40
2022-11-04T08:40:36.260Z,26.90
2022-11-04T08:43:03.105Z,32.70
2022-11-04T08:45:33.530Z,34.50
2022-11-04T08:48:05.533Z,36.90
2022-11-04T08:50:32.445Z,33.20
2022-11-04T08:52:58.924Z,33.90
2022-11-04T08:55:25.399Z,34.90
2022-11-04T08:57:51.845Z,35.90
2022-11-04T09:00:18.359Z,34.10
2022-11-04T09:02:44.809Z,32.20
2022-11-04T09:05:11.242Z,37.70
2022-11-04T09:07:37.736Z,42.20
2022-11-04T09:10:05.156Z,33.60
2022-11-04T09:12:32.435Z,33.20
2022-11-04T09:14:58.893Z,41.10
2022-11-04T09:17:25.374Z,39.40
2022-11-04T09:19:51.896Z,35.60
2022-11-04T09:22:18.545Z,36.70
2022-11-04T09:24:45.053Z,36.90
2022-11-04T09:27:11.515Z,34.60
2022-11-04T09:29:37.936Z,36.40
2022-11-04T09:32:04.619Z,34.00
2022-11-04T09:34:31.111Z,39.50
2022-11-04T09:36:57.988Z,40.80
2022-11-04T09:39:25.696Z,35.80
2022-11-04T09:41:54.776Z,41.80
2022-11-04T09:44:24.343Z,34.00
2022-11-04T09:46:54.916Z,38.90
2022-11-04T09:49:23.046Z,36.60
2022-11-04T09:51:55.708Z,44.50
2022-11-04T09:54:26.836Z,39.50
2022-11-04T09:56:57.763Z,33.80
2022-11-04T09:59:29.519Z,37.10
2022-11-04T10:02:10.966Z,38.50
2022-11-04T10:04:37.384Z,34.10
2022-11-04T10:07:33.042Z,37.40
2022-11-04T10:10:08.516Z,36.70
2022-11-04T10:12:53.802Z,34.30
2022-11-04T10:15:32.213Z,38.90
2022-11-04T10:18:13.612Z,38.30
2022-11-04T10:21:13.001Z,35.00
2022-11-04T10:23:42.257Z,39.60
2022-11-04T10:26:45.699Z,37.10
2022-11-04T10:29:17.102Z,35.20
2022-11-04T10:31:46.907Z,32.50
2022-11-04T10:34:28.626Z,35.10
2022-11-04T10:39:28.641Z,29.90
2022-11-04T10:41:55.487Z,34.60
2022-11-04T10:44:26.009Z,38.90
2022-11-04T10:47:10.844Z,35.30
2022-11-04T10:49:37.258Z,37.80
2022-11-04T10:52:05.506Z,39.20
2022-11-04T10:54:43.726Z,35.80
2022-11-04T10:57:17.986Z,35.00
2022-11-04T10:59:53.117Z,37.10
2022-11-04T11:02:52.455Z,41.30
2022-11-04T11:05:18.870Z,39.60
2022-11-04T11:07:46.604Z,37.00
2022-11-04T11:10:22.414Z,42.20
2022-11-04T11:12:58.093Z,40.40
2022-11-04T11:15:24.504Z,34.10
2022-11-04T11:17:57.347Z,37.60
2022-11-04T11:20:24.912Z,35.60
2022-11-04T11:22:52.453Z,40.70
2022-11-04T11:25:34.522Z,39.60
2022-11-04T11:28:10.663Z,38.20
2022-11-04T11:30:46.360Z,41.90
2022-11-04T11:33:32.726Z,39.20
2022-11-04T11:36:04.878Z,40.30
2022-11-04T11:38:34.008Z,38.30
2022-11-04T11:41:28.457Z,35.90
2022-11-04T11:43:56.101Z,38.20
2022-11-04T11:46:29.207Z,39.20
2022-11-04T11:48:58.606Z,41.20
2022-11-04T11:51:32.470Z,39.90
2022-11-04T11:54:27.826Z,41.20
2022-11-04T11:57:24.904Z,40.50
2022-11-04T12:02:59.210Z,38.70
2022-11-04T12:11:39.125Z,49.70
2022-11-04T12:14:17.251Z,46.90
2022-11-04T12:16:55.889Z,51.60
2022-11-04T12:19:25.264Z,50.00
2022-11-04T12:22:01.672Z,38.60
2022-11-04T12:24:52.556Z,52.90
2022-11-04T12:27:35.397Z,42.40
2022-11-04T12:30:06.068Z,40.00
2022-11-04T12:32:57.185Z,39.60
2022-11-04T12:35:44.540Z,40.20
2022-11-04T12:38:29.134Z,41.30
2022-11-04T12:41:52.310Z,38.70
2022-11-04T12:44:38.429Z,33.90
2022-11-04T12:47:32.540Z,34.40
2022-11-04T12:50:30.019Z,34.50
2022-11-04T12:53:14.927Z,37.10
2022-11-04T12:56:12.462Z,34.30
2022-11-04T12:58:47.612Z,34.40
2022-11-04T13:01:23.351Z,31.70
2022-11-04T13:03:59.233Z,36.80
2022-11-04T13:06:33.148Z,33.70
2022-11-04T13:09:05.779Z,35.60
2022-11-04T13:11:53.198Z,33.80
2022-11-04T13:14:31.927Z,36.80
2022-11-04T13:17:04.545Z,29.80
2022-11-04T13:19:50.620Z,35.70
2022-11-04T13:22:23.595Z,33.40
2022-11-04T13:24:58.837Z,29.30
2022-11-04T13:27:39.069Z,30.80
2022-11-04T13:30:31.097Z,31.20
2022-11-04T13:33:25.895Z,33.20
2022-11-04T13:36:10.512Z,33.20
2022-11-04T13:38:51.945Z,32.40
2022-11-04T13:41:45.962Z,25.30
2022-11-04T13:44:25.464Z,31.40
2022-11-04T13:46:55.750Z,30.20
2022-11-04T13:49:29.849Z,31.10
2022-11-04T13:52:08.378Z,33.00
2022-11-04T13:54:41.882Z,32.70
2022-11-04T13:57:08.367Z,32.10
2022-11-04T13:59:35.410Z,41.10
2022-11-04T14:02:14.145Z,27.30
2022-11-04T14:04:43.403Z,26.90
2022-11-04T14:07:12.494Z,27.60
2022-11-04T14:09:41.738Z,29.20
2022-11-04T14:12:11.008Z,30.80
2022-11-04T14:14:38.796Z,32.20
2022-11-04T14:17:25.355Z,31.60
2022-11-04T14:19:51.766Z,31.70
2022-11-04T14:22:19.105Z,29.20
2022-11-04T14:24:55.163Z,28.50
2022-11-04T14:27:38.852Z,28.40
2022-11-04T14:30:06.618Z,28.20
2022-11-04T14:32:39.980Z,30.90
2022-11-04T14:35:08.090Z,32.30
2022-11-04T14:37:36.369Z,29.40
2022-11-04T14:40:06.611Z,29.80
2022-11-04T14:42:50.044Z,28.00
2022-11-04T14:45:34.059Z,31.00
2022-11-04T14:48:40.705Z,28.40
2022-11-04T14:51:20.070Z,26.00
2022-11-04T14:53:46.630Z,27.40
2022-11-04T14:56:23.818Z,28.40
2022-11-04T14:59:00.795Z,29.90
2022-11-04T15:01:34.598Z,27.90
2022-11-04T15:04:21.284Z,29.50
2022-11-04T15:07:23.262Z,27.00
2022-11-04T15:12:19.588Z,27.70
2022-11-04T15:14:46.089Z,27.20
2022-11-04T15:17:19.225Z,28.00
2022-11-04T15:19:50.749Z,32.10
2022-11-04T15:24:44.369Z,32.60
2022-11-04T15:27:15.512Z,29.80
2022-11-04T15:29:54.053Z,33.20
2022-11-04T15:32:20.552Z,26.80
2022-11-04T15:34:47.804Z,30.50
2022-11-04T15:37:14.555Z,27.40
2022-11-04T15:39:44.463Z,31.00
2022-11-04T15:42:17.401Z,29.90
2022-11-04T15:44:50.999Z,27.30
2022-11-04T15:47:17.411Z,30.30
2022-11-04T15:49:45.141Z,29.30
2022-11-04T15:52:31.874Z,28.90
2022-11-04T15:55:00.162Z,30.70
2022-11-04T15:57:38.252Z,37.70
2022-11-04T16:00:20.272Z,36.90
2022-11-04T16:03:04.814Z,35.50
2022-11-04T16:05:34.322Z,34.70
2022-11-04T16:08:20.439Z,31.90
2022-11-04T16:10:47.654Z,31.90
2022-11-04T16:13:14.115Z,31.20
2022-11-04T16:15:46.126Z,28.30
2022-11-04T16:18:39.180Z,28.00
2022-11-04T16:21:08.190Z,28.50
2022-11-04T16:23:44.066Z,30.30
2022-11-04T16:26:11.401Z,29.00
2022-11-04T16:28:40.493Z,34.40
2022-11-04T16:31:08.653Z,36.60
2022-11-04T16:33:35.246Z,31.30
2022-11-04T16:36:12.363Z,31.50
2022-11-04T16:38:38.828Z,32.80
2022-11-04T16:41:05.394Z,27.20
2022-11-04T16:43:31.911Z,29.10
2022-11-04T16:45:58.353Z,31.80
2022-11-04T16:48:24.855Z,32.70
2022-11-04T16:50:51.318Z,31.60
2022-11-04T16:53:17.790Z,31.00
2022-11-04T16:55:44.934Z,29.60
2022-11-04T16:58:18.408Z,28.90
2022-11-04T17:00:44.924Z,33.20
2022-11-04T17:03:17.272Z,33.00
2022-11-04T17:05:43.802Z,30.40
2022-11-04T17:08:12.232Z,33.10
2022-11-04T17:10:38.721Z,31.50
2022-11-04T17:13:05.187Z,28.90
2022-11-04T17:15:31.748Z,27.60
2022-11-04T17:17:58.220Z,31.40
2022-11-04T17:20:24.749Z,30.50
2022-11-04T17:22:51.219Z,29.90
2022-11-04T17:25:23.494Z,27.40
2022-11-04T17:27:51.338Z,32.20
2022-11-04T17:30:19.501Z,29.40
2022-11-04T17:32:46.905Z,30.50
2022-11-04T17:35:14.504Z,28.00
2022-11-04T17:37:41.510Z,29.30
2022-11-04T17:40:12.170Z,28.30
2022-11-04T17:42:38.637Z,24.50
2022-11-04T17:45:05.400Z,27.90
2022-11-04T17:47:35.445Z,24.90
2022-11-04T17:50:02.519Z,28.60
2022-11-04T17:52:29.077Z,24.60
2022-11-04T17:54:55.522Z,28.10
2022-11-04T17:57:21.976Z,26.60
2022-11-04T17:59:48.415Z,24.00
2022-11-04T18:02:15.019Z,29.40
2022-11-04T18:04:41.550Z,27.40
2022-11-04T18:07:08.022Z,29.20
2022-11-04T18:09:34.444Z,30.10
2022-11-04T18:12:04.131Z,30.00
2022-11-04T18:14:31.394Z,27.50
2022-11-04T18:16:57.908Z,24.30
2022-11-04T18:19:26.681Z,31.10
2022-11-04T18:21:53.302Z,28.60
2022-11-04T18:24:19.857Z,29.30
2022-11-04T18:26:46.687Z,32.40
2022-11-04T18:29:13.265Z,30.00
2022-11-04T18:31:44.634Z,32.40
2022-11-04T18:34:16.300Z,31.20
2022-11-04T18:36:42.774Z,31.80
2022-11-04T18:39:12.831Z,28.10
2022-11-04T18:41:39.736Z,26.30
2022-11-04T18:44:07.551Z,29.70
2022-11-04T18:46:34.049Z,29.40
2022-11-04T18:49:00.656Z,30.20
2022-11-04T18:51:27.098Z,27.30
2022-11-04T18:53:53.929Z,28.50
2022-11-04T18:56:22.408Z,33.50
2022-11-04T18:58:52.301Z,26.00
2022-11-04T19:01:27.412Z,26.50
2022-11-04T19:03:54.382Z,27.90
2022-11-04T19:06:26.647Z,27.70
2022-11-04T19:08:59.729Z,31.20
2022-11-04T19:11:31.472Z,41.40
2022-11-04T19:14:05.064Z,31.60
2022-11-04T19:16:35.442Z,36.70
2022-11-04T19:19:04.434Z,37.30
2022-11-04T19:21:30.953Z,30.80
2022-11-04T19:23:58.000Z,34.10
2022-11-04T19:26:27.476Z,33.90
2022-11-04T19:28:54.298Z,34.00
2022-11-04T19:31:23.899Z,33.50
2022-11-04T19:33:50.942Z,31.40
2022-11-04T19:36:19.620Z,32.10
2022-11-04T19:38:46.815Z,29.90
2022-11-04T19:41:16.759Z,33.80
2022-11-04T19:43:43.205Z,32.80
2022-11-04T19:46:09.717Z,31.20
2022-11-04T19:48:36.140Z,31.30
2022-11-04T19:51:02.600Z,31.70
2022-11-04T19:53:29.053Z,32.80
2022-11-04T19:55:55.833Z,28.30
2022-11-04T19:58:22.339Z,33.00
2022-11-04T20:00:48.943Z,33.40
2022-11-04T20:03:15.496Z,30.70
2022-11-04T20:05:43.058Z,31.10
2022-11-04T20:08:10.202Z,34.60
2022-11-04T20:10:39.746Z,32.20
2022-11-04T20:13:06.824Z,32.40
2022-11-04T20:15:33.286Z,31.90
2022-11-04T20:18:00.539Z,33.00
2022-11-04T20:20:27.026Z,37.40
2022-11-04T20:22:53.483Z,31.20
2022-11-04T20:25:19.999Z,35.10
2022-11-04T20:27:46.499Z,33.60
2022-11-04T20:30:13.015Z,35.90
2022-11-04T20:32:39.501Z,34.80
2022-11-04T20:35:06.662Z,32.00
2022-11-04T20:37:33.128Z,29.70
2022-11-04T20:39:59.651Z,31.90
2022-11-04T20:42:26.175Z,34.90
2022-11-04T20:44:52.612Z,34.00
2022-11-04T20:47:19.073Z,33.80
2022-11-04T20:49:45.519Z,31.50
2022-11-04T20:52:11.944Z,34.20
2022-11-04T20:54:38.566Z,31.40
2022-11-04T20:57:05.020Z,30.50
2022-11-04T20:59:31.519Z,29.80
2022-11-04T21:01:58.075Z,30.10
2022-11-04T21:04:24.674Z,27.60
2022-11-04T21:06:51.584Z,29.90
2022-11-04T21:09:20.233Z,31.70
2022-11-04T21:11:47.481Z,30.60
2022-11-04T21:14:16.116Z,31.60
2022-11-04T21:16:42.992Z,31.10
2022-11-04T21:19:10.097Z,36.00
2022-11-04T21:21:36.591Z,31.80
2022-11-04T21:24:05.895Z,32.70
2022-11-04T21:26:35.231Z,32.70
2022-11-04T21:29:04.936Z,31.20
2022-11-04T21:31:32.971Z,27.90
2022-11-04T21:33:59.984Z,32.60
2022-11-04T21:36:26.568Z,39.20
2022-11-04T21:38:53.065Z,34.70
2022-11-04T21:41:22.553Z,31.00
2022-11-04T21:43:53.785Z,35.90
2022-11-04T21:46:20.216Z,36.80
2022-11-04T21:48:46.633Z,33.80
2022-11-04T21:51:19.446Z,31.70
2022-11-04T21:53:46.196Z,35.50
2022-11-04T21:56:21.360Z,34.40
2022-11-04T21:58:47.912Z,35.20
2022-11-04T22:01:20.323Z,32.50
2022-11-04T22:03:55.945Z,32.60
2022-11-04T22:06:22.792Z,35.30
2022-11-04T22:08:51.346Z,34.50
2022-11-04T22:11:29.257Z,34.60
2022-11-04T22:14:00.951Z,29.90
2022-11-04T22:16:29.937Z,33.70
2022-11-04T22:18:59.612Z,31.00
2022-11-04T22:21:27.867Z,35.50
2022-11-04T22:23:55.312Z,40.40
2022-11-04T22:26:28.847Z,44.60
2022-11-04T22:28:56.683Z,42.00
2022-11-04T22:31:24.517Z,42.40
2022-11-04T22:33:51.935Z,42.60
2022-11-04T22:36:18.777Z,47.10
2022-11-04T22:38:45.897Z,48.10
2022-11-04T22:41:15.815Z,48.70
2022-11-04T22:43:42.242Z,50.20
2022-11-04T22:46:13.088Z,49.30
2022-11-04T22:48:40.464Z,47.20
2022-11-04T22:51:07.152Z,42.40
2022-11-04T22:53:33.629Z,48.70
2022-11-04T22:56:01.050Z,45.80
2022-11-04T22:58:28.235Z,45.70
2022-11-04T23:01:00.498Z,46.80
2022-11-04T23:03:27.611Z,36.10
2022-11-04T23:05:59.886Z,37.20
2022-11-04T23:08:28.442Z,41.10
2022-11-04T23:10:57.587Z,34.30
2022-11-04T23:13:24.046Z,29.20
2022-11-04T23:15:50.574Z,32.10
2022-11-04T23:18:17.041Z,31.60
2022-11-04T23:20:43.482Z,32.30
2022-11-04T23:23:10.005Z,32.00
2022-11-04T23:25:36.747Z,32.50
2022-11-04T23:28:03.283Z,28.00
2022-11-04T23:30:33.056Z,29.80
2022-11-04T23:33:04.984Z,27.40
2022-11-04T23:35:37.604Z,27.80
2022-11-04T23:38:04.260Z,28.20
2022-11-04T23:40:32.319Z,28.70
2022-11-04T23:42:58.903Z,27.60
2022-11-04T23:45:25.421Z,16.20
2022-11-04T23:47:55.654Z,23.90
2022-11-04T23:50:24.240Z,23.40
2022-11-04T23:52:50.706Z,19.00
2022-11-04T23:55:17.232Z,19.10
2022-11-04T23:57:43.690Z,22.30
